createdAt,value
2022-10-21T00:00:08.042Z,12.29
2022-10-21T00:01:08.037Z,12.17
2022-10-21T00:02:08.077Z,12.09
2022-10-21T00:03:08.032Z,12.05
2022-10-21T00:04:08.042Z,12.10
2022-10-21T00:05:08.034Z,11.98
2022-10-21T00:06:08.029Z,12.04
2022-10-21T00:07:08.032Z,12.17
2022-10-21T00:08:08.029Z,12.14
2022-10-21T00:09:08.097Z,12.14
2022-10-21T00:10:08.029Z,12.32
2022-10-21T00:11:08.029Z,12.34
2022-10-21T00:12:08.030Z,12.42
2022-10-21T00:13:08.021Z,12.50
2022-10-21T00:14:08.024Z,12.39
2022-10-21T00:15:08.017Z,12.46
2022-10-21T00:16:08.023Z,12.39
2022-10-21T00:17:08.016Z,12.32
2022-10-21T00:18:08.041Z,12.27
2022-10-21T00:19:08.015Z,12.14
2022-10-21T00:20:08.015Z,12.20
2022-10-21T00:21:08.012Z,12.19
2022-10-21T00:22:08.014Z,12.17
2022-10-21T00:23:08.008Z,12.31
2022-10-21T00:24:08.008Z,12.31
2022-10-21T00:25:08.010Z,12.24
2022-10-21T00:26:08.003Z,12.12
2022-10-21T00:27:08.003Z,12.09
2022-10-21T00:28:08.006Z,12.12
2022-10-21T00:29:08.105Z,12.14
2022-10-21T00:30:08.006Z,12.14
2022-10-21T00:31:08.003Z,12.21
2022-10-21T00:32:07.999Z,12.27
2022-10-21T00:33:07.997Z,12.37
2022-10-21T00:34:08.029Z,12.27
2022-10-21T00:35:07.999Z,12.29
2022-10-21T00:36:08.020Z,12.35
2022-10-21T00:37:07.999Z,12.29
2022-10-21T00:38:07.990Z,12.42
2022-10-21T00:39:07.995Z,12.29
2022-10-21T00:40:07.988Z,12.34
2022-10-21T00:41:07.989Z,12.42
2022-10-21T00:42:07.987Z,12.41
2022-10-21T00:43:07.983Z,12.42
2022-10-21T00:44:07.983Z,12.56
2022-10-21T00:45:07.980Z,12.52
2022-10-21T00:46:07.982Z,12.57
2022-10-21T00:47:07.981Z,12.56
2022-10-21T00:48:07.979Z,12.64
2022-10-21T00:49:07.978Z,12.70
2022-10-21T00:50:08.001Z,12.70
2022-10-21T00:51:07.984Z,12.67
2022-10-21T00:52:07.972Z,12.64
2022-10-21T00:53:07.972Z,12.67
2022-10-21T00:54:07.980Z,12.68
2022-10-21T00:55:07.969Z,12.57
2022-10-21T00:56:08.514Z,12.52
2022-10-21T00:57:07.967Z,12.54
2022-10-21T00:58:07.968Z,12.53
2022-10-21T00:59:07.971Z,12.56
2022-10-21T01:00:07.963Z,12.64
2022-10-21T01:01:08.052Z,12.67
2022-10-21T01:02:07.963Z,12.64
2022-10-21T01:03:07.963Z,12.67
2022-10-21T01:04:07.956Z,12.74
2022-10-21T01:05:07.960Z,12.57
2022-10-21T01:06:07.976Z,12.64
2022-10-21T01:07:07.954Z,12.65
2022-10-21T01:08:07.952Z,12.56
2022-10-21T01:09:08.095Z,12.62
2022-10-21T01:10:07.951Z,12.53
2022-10-21T01:11:07.950Z,12.45
2022-10-21T01:12:07.948Z,12.56
2022-10-21T01:13:07.948Z,12.64
2022-10-21T01:14:07.947Z,12.56
2022-10-21T01:15:07.946Z,12.62
2022-10-21T01:16:07.941Z,12.65
2022-10-21T01:17:20.645Z,12.59
2022-10-21T01:18:07.940Z,12.67
2022-10-21T01:19:07.939Z,12.70
2022-10-21T01:20:07.941Z,12.62
2022-10-21T01:21:07.938Z,12.67
2022-10-21T01:22:07.961Z,12.68
2022-10-21T01:23:07.935Z,12.65
2022-10-21T01:24:07.945Z,12.71
2022-10-21T01:25:07.935Z,12.56
2022-10-21T01:26:07.935Z,12.67
2022-10-21T01:27:07.929Z,12.59
2022-10-21T01:28:07.928Z,12.56
2022-10-21T01:29:07.930Z,12.56
2022-10-21T01:30:07.926Z,12.67
2022-10-21T01:31:07.923Z,12.65
2022-10-21T01:32:07.925Z,12.65
2022-10-21T01:33:07.999Z,12.60
2022-10-21T01:34:07.925Z,12.67
2022-10-21T01:35:07.923Z,12.70
2022-10-21T01:36:07.922Z,12.67
2022-10-21T01:37:07.921Z,12.62
2022-10-21T01:38:07.948Z,12.57
2022-10-21T01:39:07.914Z,12.52
2022-10-21T01:40:07.919Z,12.52
2022-10-21T01:41:07.917Z,12.49
2022-10-21T01:42:07.916Z,12.53
2022-10-21T01:43:07.914Z,12.52
2022-10-21T01:44:07.913Z,12.59
2022-10-21T01:45:07.909Z,12.57
2022-10-21T01:46:07.910Z,12.54
2022-10-21T01:47:07.912Z,12.53
2022-10-21T01:48:07.910Z,12.57
2022-10-21T01:49:07.908Z,12.46
2022-10-21T01:50:07.907Z,12.49
2022-10-21T01:51:07.905Z,12.50
2022-10-21T01:52:07.904Z,12.52
2022-10-21T01:53:07.901Z,12.52
2022-10-21T01:54:07.922Z,12.60
2022-10-21T01:55:07.898Z,12.59
2022-10-21T01:56:07.900Z,12.57
2022-10-21T01:57:07.900Z,12.57
2022-10-21T01:58:07.901Z,12.71
2022-10-21T01:59:07.894Z,12.67
2022-10-21T02:00:07.892Z,12.74
2022-10-21T02:01:07.924Z,12.62
2022-10-21T02:02:07.892Z,12.70
2022-10-21T02:03:07.889Z,12.70
2022-10-21T02:04:07.892Z,12.64
2022-10-21T02:05:07.890Z,12.65
2022-10-21T02:06:07.883Z,12.68
2022-10-21T02:07:07.881Z,12.67
2022-10-21T02:08:07.887Z,12.50
2022-10-21T02:09:07.997Z,12.53
2022-10-21T02:10:07.896Z,12.59
2022-10-21T02:11:07.880Z,12.62
2022-10-21T02:12:07.883Z,12.64
2022-10-21T02:13:07.875Z,12.64
2022-10-21T02:14:07.882Z,12.59
2022-10-21T02:15:07.874Z,12.65
2022-10-21T02:16:07.879Z,12.74
2022-10-21T02:17:07.877Z,12.79
2022-10-21T02:18:07.868Z,12.68
2022-10-21T02:19:07.869Z,12.67
2022-10-21T02:20:07.867Z,12.62
2022-10-21T02:21:07.871Z,12.67
2022-10-21T02:22:07.866Z,12.59
2022-10-21T02:23:07.867Z,12.68
2022-10-21T02:24:07.865Z,12.67
2022-10-21T02:25:07.864Z,12.65
2022-10-21T02:26:07.884Z,12.71
2022-10-21T02:27:07.860Z,12.65
2022-10-21T02:28:07.857Z,12.70
2022-10-21T02:29:07.862Z,12.70
2022-10-21T02:30:07.858Z,12.62
2022-10-21T02:31:07.856Z,12.70
2022-10-21T02:32:07.856Z,12.71
2022-10-21T02:33:07.860Z,12.72
2022-10-21T02:34:07.853Z,12.79
2022-10-21T02:35:07.855Z,12.74
2022-10-21T02:36:07.852Z,12.82
2022-10-21T02:37:07.853Z,12.79
2022-10-21T02:38:07.852Z,12.74
2022-10-21T02:39:07.846Z,12.82
2022-10-21T02:40:07.849Z,12.79
2022-10-21T02:41:07.848Z,12.79
2022-10-21T02:42:07.864Z,12.79
2022-10-21T02:43:07.840Z,12.82
2022-10-21T02:44:07.838Z,12.89
2022-10-21T02:45:07.838Z,12.78
2022-10-21T02:46:07.844Z,12.89
2022-10-21T02:47:07.904Z,12.82
2022-10-21T02:48:07.843Z,12.79
2022-10-21T02:49:07.836Z,12.74
2022-10-21T02:50:07.837Z,12.82
2022-10-21T02:51:07.835Z,12.92
2022-10-21T02:52:07.832Z,12.83
2022-10-21T02:53:07.835Z,12.77
2022-10-21T02:54:07.830Z,12.83
2022-10-21T02:55:07.829Z,12.75
2022-10-21T02:56:07.829Z,12.77
2022-10-21T02:57:07.826Z,12.82
2022-10-21T02:58:07.847Z,12.89
2022-10-21T02:59:07.825Z,13.04
2022-10-21T03:00:07.825Z,13.00
2022-10-21T03:01:07.902Z,13.01
2022-10-21T03:02:07.826Z,13.01
2022-10-21T03:03:07.818Z,13.04
2022-10-21T03:04:07.824Z,13.03
2022-10-21T03:05:07.819Z,12.97
2022-10-21T03:06:07.823Z,13.07
2022-10-21T03:07:07.816Z,13.17
2022-10-21T03:08:07.814Z,13.05
2022-10-21T03:09:07.814Z,13.08
2022-10-21T03:10:07.814Z,13.15
2022-10-21T03:11:07.811Z,13.08
2022-10-21T03:12:07.809Z,13.17
2022-10-21T03:13:07.811Z,13.12
2022-10-21T03:14:07.835Z,13.17
2022-10-21T03:15:07.807Z,13.05
2022-10-21T03:16:07.855Z,13.07
2022-10-21T03:17:07.805Z,13.19
2022-10-21T03:18:07.811Z,13.07
2022-10-21T03:19:07.802Z,13.25
2022-10-21T03:20:07.807Z,13.12
2022-10-21T03:21:07.803Z,13.19
2022-10-21T03:22:07.803Z,13.10
2022-10-21T03:23:07.801Z,13.14
2022-10-21T03:24:15.187Z,13.22
2022-10-21T03:25:07.796Z,13.15
2022-10-21T03:26:07.797Z,13.08
2022-10-21T03:27:07.789Z,13.03
2022-10-21T03:28:07.788Z,13.00
2022-10-21T03:29:07.792Z,13.05
2022-10-21T03:30:07.818Z,13.03
2022-10-21T03:31:07.794Z,12.95
2022-10-21T03:32:07.787Z,13.00
2022-10-21T03:33:07.789Z,12.95
2022-10-21T03:34:07.787Z,13.03
2022-10-21T03:35:07.791Z,12.85
2022-10-21T03:36:07.788Z,13.04
2022-10-21T03:37:07.785Z,13.11
2022-10-21T03:38:07.783Z,13.07
2022-10-21T03:39:07.787Z,13.10
2022-10-21T03:40:11.431Z,13.10
2022-10-21T03:41:07.780Z,13.01
2022-10-21T03:42:07.778Z,12.96
2022-10-21T03:43:07.783Z,13.03
2022-10-21T03:44:07.777Z,12.90
2022-10-21T03:45:07.778Z,12.95
2022-10-21T03:46:07.795Z,12.97
2022-10-21T03:47:07.772Z,13.01
2022-10-21T03:48:07.775Z,13.01
2022-10-21T03:49:14.648Z,13.05
2022-10-21T03:50:11.919Z,13.01
2022-10-21T03:51:07.772Z,13.05
2022-10-21T03:52:07.770Z,13.04
2022-10-21T03:53:18.591Z,13.00
2022-10-21T03:54:07.768Z,12.87
2022-10-21T03:55:07.766Z,12.82
2022-10-21T03:56:07.764Z,12.79
2022-10-21T03:57:07.766Z,12.85
2022-10-21T03:58:07.764Z,12.89
2022-10-21T03:59:07.762Z,12.82
2022-10-21T04:00:07.846Z,12.90
2022-10-21T04:01:07.760Z,12.89
2022-10-21T04:02:07.877Z,12.90
2022-10-21T04:03:07.754Z,13.01
2022-10-21T04:04:07.753Z,13.03
2022-10-21T04:05:07.754Z,13.03
2022-10-21T04:06:07.757Z,13.12
2022-10-21T04:07:07.752Z,13.04
2022-10-21T04:08:07.750Z,13.03
2022-10-21T04:09:07.822Z,13.03
2022-10-21T04:10:07.752Z,13.04
2022-10-21T04:11:07.750Z,13.05
2022-10-21T04:12:07.744Z,13.05
2022-10-21T04:13:07.745Z,12.97
2022-10-21T04:14:11.522Z,13.01
2022-10-21T04:15:07.746Z,13.08
2022-10-21T04:16:07.745Z,13.00
2022-10-21T04:17:08.108Z,13.03
2022-10-21T04:18:07.764Z,13.00
2022-10-21T04:19:07.746Z,13.03
2022-10-21T04:20:07.740Z,13.01
2022-10-21T04:21:07.736Z,13.07
2022-10-21T04:22:07.739Z,12.97
2022-10-21T04:23:07.738Z,12.97
2022-10-21T04:24:07.733Z,12.93
2022-10-21T04:25:07.736Z,12.86
2022-10-21T04:26:07.730Z,12.90
2022-10-21T04:27:07.730Z,12.82
2022-10-21T04:28:07.733Z,12.86
2022-10-21T04:29:07.729Z,12.83
2022-10-21T04:30:07.728Z,12.89
2022-10-21T04:31:07.728Z,12.75
2022-10-21T04:32:07.727Z,12.78
2022-10-21T04:33:07.731Z,12.89
2022-10-21T04:34:07.755Z,12.87
2022-10-21T04:35:07.724Z,12.89
2022-10-21T04:36:07.724Z,12.92
2022-10-21T04:37:07.721Z,12.95
2022-10-21T04:38:07.720Z,12.95
2022-10-21T04:39:07.717Z,13.00
2022-10-21T04:40:07.717Z,12.89
2022-10-21T04:41:07.718Z,12.89
2022-10-21T04:42:07.712Z,12.89
2022-10-21T04:43:07.715Z,12.82
2022-10-21T04:44:07.714Z,12.67
2022-10-21T04:45:07.713Z,12.70
2022-10-21T04:46:09.983Z,12.77
2022-10-21T04:47:07.715Z,12.86
2022-10-21T04:48:07.712Z,12.79
2022-10-21T04:49:07.709Z,12.70
2022-10-21T04:50:07.728Z,12.72
2022-10-21T04:51:07.706Z,12.72
2022-10-21T04:52:07.704Z,12.87
2022-10-21T04:53:07.717Z,12.79
2022-10-21T04:54:07.701Z,12.85
2022-10-21T04:55:07.704Z,12.77
2022-10-21T04:56:07.705Z,12.83
2022-10-21T04:57:07.704Z,12.75
2022-10-21T04:58:07.701Z,12.68
2022-10-21T04:59:07.696Z,12.68
2022-10-21T05:00:07.696Z,12.82
2022-10-21T05:01:07.735Z,12.71
2022-10-21T05:02:07.705Z,12.72
2022-10-21T05:03:07.698Z,12.82
2022-10-21T05:04:07.693Z,12.79
2022-10-21T05:05:07.691Z,12.82
2022-10-21T05:06:07.741Z,12.74
2022-10-21T05:07:07.691Z,12.85
2022-10-21T05:08:11.470Z,12.77
2022-10-21T05:09:07.757Z,12.83
2022-10-21T05:10:07.685Z,12.82
2022-10-21T05:11:07.682Z,12.82
2022-10-21T05:12:07.684Z,12.85
2022-10-21T05:13:07.684Z,12.92
2022-10-21T05:14:07.680Z,12.86
2022-10-21T05:15:07.684Z,12.92
2022-10-21T05:16:07.682Z,13.01
2022-10-21T05:17:07.679Z,13.03
2022-10-21T05:18:07.676Z,12.86
2022-10-21T05:19:07.675Z,13.04
2022-10-21T05:20:07.674Z,12.85
2022-10-21T05:21:07.675Z,12.92
2022-10-21T05:22:07.692Z,12.87
2022-10-21T05:23:07.667Z,13.00
2022-10-21T05:24:07.671Z,13.01
2022-10-21T05:25:07.674Z,13.01
2022-10-21T05:26:07.669Z,13.00
2022-10-21T05:27:07.669Z,12.89
2022-10-21T05:28:07.665Z,13.01
2022-10-21T05:29:07.660Z,13.04
2022-10-21T05:30:07.661Z,13.10
2022-10-21T05:31:07.665Z,13.01
2022-10-21T05:32:07.661Z,13.01
2022-10-21T05:33:07.664Z,13.05
2022-10-21T05:34:07.759Z,13.08
2022-10-21T05:35:07.659Z,13.10
2022-10-21T05:36:07.670Z,13.11
2022-10-21T05:37:07.661Z,12.95
2022-10-21T05:38:07.675Z,13.00
2022-10-21T05:39:07.654Z,13.07
2022-10-21T05:40:07.656Z,13.05
2022-10-21T05:41:07.651Z,13.01
2022-10-21T05:42:07.650Z,13.15
2022-10-21T05:43:07.657Z,13.04
2022-10-21T05:44:07.646Z,13.07
2022-10-21T05:45:07.646Z,13.11
2022-10-21T05:46:07.647Z,13.19
2022-10-21T05:47:07.650Z,13.10
2022-10-21T05:48:07.647Z,13.17
2022-10-21T05:49:07.670Z,13.20
2022-10-21T05:50:07.647Z,13.22
2022-10-21T05:51:07.643Z,13.28
2022-10-21T05:52:07.640Z,13.23
2022-10-21T05:53:07.638Z,13.26
2022-10-21T05:54:07.657Z,13.25
2022-10-21T05:55:07.636Z,13.25
2022-10-21T05:56:07.634Z,13.22
2022-10-21T05:57:07.637Z,13.25
2022-10-21T05:58:07.639Z,13.30
2022-10-21T05:59:10.081Z,13.28
2022-10-21T06:00:07.638Z,13.25
2022-10-21T06:01:07.698Z,13.38
2022-10-21T06:02:07.632Z,13.29
2022-10-21T06:03:07.635Z,13.28
2022-10-21T06:04:07.632Z,13.28
2022-10-21T06:05:07.624Z,13.28
2022-10-21T06:06:07.618Z,13.26
2022-10-21T06:07:07.623Z,13.32
2022-10-21T06:08:07.628Z,13.26
2022-10-21T06:09:07.691Z,13.22
2022-10-21T06:10:07.646Z,13.23
2022-10-21T06:11:07.628Z,13.28
2022-10-21T06:12:07.624Z,13.19
2022-10-21T06:13:07.630Z,13.22
2022-10-21T06:14:07.611Z,13.20
2022-10-21T06:15:07.618Z,13.23
2022-10-21T06:16:07.629Z,13.32
2022-10-21T06:17:07.614Z,13.30
2022-10-21T06:18:07.613Z,13.23
2022-10-21T06:19:07.610Z,13.39
2022-10-21T06:20:07.612Z,13.41
2022-10-21T06:21:07.615Z,13.39
2022-10-21T06:22:07.607Z,13.39
2022-10-21T06:23:07.608Z,13.25
2022-10-21T06:24:07.608Z,13.36
2022-10-21T06:25:07.687Z,13.41
2022-10-21T06:26:07.632Z,13.52
2022-10-21T06:27:07.605Z,13.51
2022-10-21T06:28:07.603Z,13.54
2022-10-21T06:29:07.597Z,13.62
2022-10-21T06:30:07.598Z,13.51
2022-10-21T06:31:07.598Z,13.54
2022-10-21T06:32:07.600Z,13.49
2022-10-21T06:33:07.596Z,13.60
2022-10-21T06:34:07.676Z,13.59
2022-10-21T06:35:07.599Z,13.42
2022-10-21T06:36:07.598Z,13.41
2022-10-21T06:37:07.596Z,13.36
2022-10-21T06:38:07.594Z,13.28
2022-10-21T06:39:07.594Z,13.26
2022-10-21T06:40:07.590Z,13.23
2022-10-21T06:41:10.597Z,13.25
2022-10-21T06:42:07.610Z,13.44
2022-10-21T06:43:07.593Z,13.41
2022-10-21T06:44:07.588Z,13.46
2022-10-21T06:45:07.587Z,13.48
2022-10-21T06:46:07.583Z,13.48
2022-10-21T06:47:07.586Z,13.41
2022-10-21T06:48:07.584Z,13.39
2022-10-21T06:49:07.586Z,13.25
2022-10-21T06:50:07.579Z,13.26
2022-10-21T06:51:07.578Z,13.28
2022-10-21T06:52:07.576Z,13.36
2022-10-21T06:53:07.582Z,13.42
2022-10-21T06:54:07.586Z,13.46
2022-10-21T06:55:07.586Z,13.44
2022-10-21T06:56:07.577Z,13.23
2022-10-21T06:57:07.572Z,13.33
2022-10-21T06:58:07.587Z,13.36
2022-10-21T06:59:07.576Z,13.23
2022-10-21T07:00:07.571Z,13.25
2022-10-21T07:01:16.503Z,13.19
2022-10-21T07:02:07.573Z,13.22
2022-10-21T07:03:07.566Z,13.25
2022-10-21T07:04:07.568Z,13.20
2022-10-21T07:05:07.568Z,13.32
2022-10-21T07:06:07.559Z,13.29
2022-10-21T07:07:07.569Z,13.28
2022-10-21T07:08:10.549Z,13.32
2022-10-21T07:09:07.606Z,13.45
2022-10-21T07:10:07.553Z,13.48
2022-10-21T07:11:07.562Z,13.54
2022-10-21T07:12:07.556Z,13.55
2022-10-21T07:13:07.557Z,13.51
2022-10-21T07:14:07.581Z,13.55
2022-10-21T07:15:07.557Z,13.54
2022-10-21T07:16:07.554Z,13.60
2022-10-21T07:17:07.557Z,13.57
2022-10-21T07:18:07.551Z,13.59
2022-10-21T07:19:07.551Z,13.59
2022-10-21T07:20:07.548Z,13.69
2022-10-21T07:21:07.550Z,13.59
2022-10-21T07:22:07.558Z,13.71
2022-10-21T07:23:07.545Z,13.69
2022-10-21T07:24:07.550Z,13.78
2022-10-21T07:25:07.548Z,13.77
2022-10-21T07:26:07.546Z,13.81
2022-10-21T07:27:07.542Z,13.82
2022-10-21T07:28:07.545Z,13.88
2022-10-21T07:29:07.546Z,13.84
2022-10-21T07:30:07.555Z,13.88
2022-10-21T07:31:07.540Z,13.85
2022-10-21T07:32:07.539Z,13.71
2022-10-21T07:33:07.539Z,13.79
2022-10-21T07:34:07.541Z,13.79
2022-10-21T07:35:07.535Z,13.85
2022-10-21T07:36:07.536Z,13.95
2022-10-21T07:37:07.534Z,13.92
2022-10-21T07:38:07.530Z,13.92
2022-10-21T07:39:07.532Z,13.89
2022-10-21T07:40:07.527Z,13.89
2022-10-21T07:41:07.528Z,13.88
2022-10-21T07:42:07.528Z,13.89
2022-10-21T07:43:07.596Z,13.92
2022-10-21T07:44:07.526Z,13.96
2022-10-21T07:45:07.527Z,13.79
2022-10-21T07:46:07.554Z,13.95
2022-10-21T07:47:07.527Z,13.96
2022-10-21T07:48:07.523Z,13.99
2022-10-21T07:49:07.521Z,13.97
2022-10-21T07:50:07.523Z,14.03
2022-10-21T07:51:07.522Z,14.04
2022-10-21T07:52:07.562Z,14.20
2022-10-21T07:53:12.453Z,14.15
2022-10-21T07:54:07.508Z,14.18
2022-10-21T07:55:07.513Z,14.33
2022-10-21T07:56:07.522Z,14.36
2022-10-21T07:57:07.513Z,14.37
2022-10-21T07:58:07.514Z,14.40
2022-10-21T07:59:12.474Z,14.39
2022-10-21T08:00:07.510Z,14.40
2022-10-21T08:01:07.624Z,14.46
2022-10-21T08:02:07.535Z,14.40
2022-10-21T08:03:07.512Z,14.39
2022-10-21T08:04:07.507Z,14.43
2022-10-21T08:05:07.510Z,14.37
2022-10-21T08:06:07.504Z,14.46
2022-10-21T08:07:10.309Z,14.32
2022-10-21T08:08:07.507Z,14.40
2022-10-21T08:09:07.671Z,14.42
2022-10-21T08:10:07.497Z,14.40
2022-10-21T08:11:07.506Z,14.40
2022-10-21T08:12:10.376Z,14.43
2022-10-21T08:13:07.503Z,14.42
2022-10-21T08:14:07.503Z,14.58
2022-10-21T08:15:07.501Z,14.51
2022-10-21T08:16:07.499Z,14.58
2022-10-21T08:17:07.497Z,14.55
2022-10-21T08:18:07.516Z,14.73
2022-10-21T08:19:07.494Z,14.61
2022-10-21T08:20:07.500Z,14.68
2022-10-21T08:21:07.508Z,14.69
2022-10-21T08:22:07.491Z,14.77
2022-10-21T08:23:07.490Z,14.80
2022-10-21T08:24:07.492Z,14.78
2022-10-21T08:25:07.488Z,14.89
2022-10-21T08:26:07.488Z,14.89
2022-10-21T08:27:07.483Z,14.98
2022-10-21T08:28:07.488Z,14.88
2022-10-21T08:29:07.484Z,15.01
2022-10-21T08:30:07.494Z,15.20
2022-10-21T08:31:07.481Z,15.20
2022-10-21T08:32:07.482Z,15.23
2022-10-21T08:33:07.482Z,15.31
2022-10-21T08:34:07.502Z,15.49
2022-10-21T08:35:07.482Z,15.74
2022-10-21T08:36:07.483Z,15.75
2022-10-21T08:37:07.485Z,15.87
2022-10-21T08:39:07.479Z,16.12
2022-10-21T08:40:07.481Z,16.07
2022-10-21T08:41:07.484Z,16.07
2022-10-21T08:42:07.485Z,16.23
2022-10-21T08:43:07.519Z,16.30
2022-10-21T08:44:07.485Z,16.39
2022-10-21T08:45:07.482Z,16.12
2022-10-21T08:46:07.479Z,16.11
2022-10-21T08:48:07.480Z,15.93
2022-10-21T08:49:07.475Z,15.84
2022-10-21T08:50:07.513Z,15.87
2022-10-21T08:51:07.475Z,15.86
2022-10-21T08:52:07.488Z,15.86
2022-10-21T08:53:07.476Z,15.90
2022-10-21T08:54:07.470Z,15.90
2022-10-21T08:55:07.476Z,15.92
2022-10-21T08:56:07.543Z,16.02
2022-10-21T08:57:07.470Z,16.01
2022-10-21T08:58:07.477Z,16.00
2022-10-21T08:59:07.475Z,16.02
2022-10-21T09:00:07.475Z,16.12
2022-10-21T09:01:07.469Z,16.08
2022-10-21T09:02:07.473Z,16.24
2022-10-21T09:03:07.523Z,16.25
2022-10-21T09:04:07.478Z,16.28
2022-10-21T09:05:07.469Z,16.07
2022-10-21T09:06:07.508Z,16.12
2022-10-21T09:07:07.475Z,16.11
2022-10-21T09:08:07.472Z,16.00
2022-10-21T09:09:07.530Z,16.08
2022-10-21T09:10:07.470Z,16.09
2022-10-21T09:11:07.471Z,16.17
2022-10-21T09:12:07.469Z,16.08
2022-10-21T09:13:07.469Z,16.04
2022-10-21T09:14:07.464Z,16.12
2022-10-21T09:15:11.166Z,15.96
2022-10-21T09:16:07.486Z,16.04
2022-10-21T09:17:07.474Z,16.33
2022-10-21T09:18:07.466Z,16.25
2022-10-21T09:19:07.469Z,16.28
2022-10-21T09:20:07.462Z,16.41
2022-10-21T09:21:07.468Z,16.41
2022-10-21T09:22:33.179Z,16.52
2022-10-21T09:23:07.466Z,16.60
2022-10-21T09:24:07.466Z,16.46
2022-10-21T09:25:07.468Z,16.38
2022-10-21T09:26:07.463Z,16.52
2022-10-21T09:27:07.462Z,16.45
2022-10-21T09:28:07.466Z,16.53
2022-10-21T09:29:07.463Z,16.58
2022-10-21T09:30:07.467Z,16.63
2022-10-21T09:31:07.464Z,16.71
2022-10-21T09:32:07.463Z,16.71
2022-10-21T09:33:07.456Z,16.78
2022-10-21T09:34:07.461Z,16.79
2022-10-21T09:35:07.458Z,16.79
2022-10-21T09:36:07.465Z,16.86
2022-10-21T09:37:07.460Z,17.00
2022-10-21T09:38:07.487Z,17.15
2022-10-21T09:39:07.462Z,17.30
2022-10-21T09:40:07.460Z,17.43
2022-10-21T09:41:07.467Z,17.44
2022-10-21T09:42:13.403Z,17.55
2022-10-21T09:43:07.462Z,17.70
2022-10-21T09:44:07.458Z,17.92
2022-10-21T09:45:07.471Z,18.00
2022-10-21T09:46:07.461Z,18.29
2022-10-21T09:47:07.459Z,18.65
2022-10-21T09:48:07.462Z,18.87
2022-10-21T09:49:36.770Z,18.98
2022-10-21T09:50:08.303Z,19.28
2022-10-21T09:51:07.461Z,19.88
2022-10-21T09:52:07.467Z,20.31
2022-10-21T09:53:07.460Z,20.29
2022-10-21T09:54:07.479Z,20.32
2022-10-21T09:55:07.467Z,20.17
2022-10-21T09:56:07.459Z,20.03
2022-10-21T09:57:07.465Z,19.96
2022-10-21T09:58:07.466Z,19.87
2022-10-21T09:59:07.976Z,19.73
2022-10-21T10:00:11.053Z,20.03
2022-10-21T10:01:07.463Z,20.59
2022-10-21T10:02:07.568Z,21.24
2022-10-21T10:03:07.465Z,21.71
2022-10-21T10:04:07.469Z,22.03
2022-10-21T10:05:07.469Z,22.18
2022-10-21T10:06:07.472Z,21.90
2022-10-21T10:07:07.471Z,21.72
2022-10-21T10:08:07.476Z,21.28
2022-10-21T10:09:07.490Z,20.92
2022-10-21T10:10:07.507Z,20.57
2022-10-21T10:11:07.473Z,20.29
2022-10-21T10:12:07.480Z,19.91
2022-10-21T10:13:07.479Z,19.81
2022-10-21T10:14:07.481Z,19.68
2022-10-21T10:15:07.482Z,19.66
2022-10-21T10:16:07.484Z,19.56
2022-10-21T10:17:07.484Z,19.41
2022-10-21T10:18:07.489Z,19.39
2022-10-21T10:19:07.485Z,19.28
2022-10-21T10:20:07.496Z,19.40
2022-10-21T10:21:07.493Z,19.39
2022-10-21T10:22:10.279Z,19.54
2022-10-21T10:23:07.495Z,20.31
2022-10-21T10:24:07.496Z,21.47
2022-10-21T10:25:07.498Z,22.37
2022-10-21T10:26:07.528Z,23.02
2022-10-21T10:27:07.499Z,23.31
2022-10-21T10:28:07.504Z,23.32
2022-10-21T10:29:07.499Z,23.39
2022-10-21T10:30:07.509Z,23.27
2022-10-21T10:31:07.510Z,22.73
2022-10-21T10:32:07.512Z,22.62
2022-10-21T10:33:07.517Z,22.49
2022-10-21T10:34:07.517Z,22.54
2022-10-21T10:35:07.527Z,22.35
2022-10-21T10:36:09.567Z,22.07
2022-10-21T10:37:07.526Z,21.86
2022-10-21T10:38:07.526Z,21.43
2022-10-21T10:39:07.529Z,21.50
2022-10-21T10:40:07.534Z,21.42
2022-10-21T10:41:07.535Z,21.34
2022-10-21T10:42:07.650Z,21.27
2022-10-21T10:43:07.543Z,21.54
2022-10-21T10:44:07.546Z,21.92
2022-10-21T10:45:07.549Z,22.25
2022-10-21T10:46:07.553Z,22.43
2022-10-21T10:47:07.563Z,22.35
2022-10-21T10:48:07.558Z,22.67
2022-10-21T10:49:07.568Z,23.01
2022-10-21T10:50:07.564Z,23.51
2022-10-21T10:51:07.567Z,23.83
2022-10-21T10:52:07.574Z,24.06
2022-10-21T10:53:07.577Z,24.27
2022-10-21T10:54:07.582Z,24.53
2022-10-21T10:55:07.586Z,24.78
2022-10-21T10:56:07.592Z,25.43
2022-10-21T10:57:07.593Z,25.64
2022-10-21T10:58:11.665Z,25.58
2022-10-21T10:59:07.604Z,26.01
2022-10-21T11:00:07.618Z,26.50
2022-10-21T11:01:07.655Z,27.07
2022-10-21T11:02:07.621Z,27.03
2022-10-21T11:03:07.620Z,27.25
2022-10-21T11:04:07.633Z,27.27
2022-10-21T11:05:07.640Z,27.62
2022-10-21T11:06:07.641Z,27.55
2022-10-21T11:07:07.650Z,27.94
2022-10-21T11:08:07.659Z,28.18
2022-10-21T11:09:07.775Z,28.52
2022-10-21T11:10:07.670Z,29.02
2022-10-21T11:11:07.676Z,29.23
2022-10-21T11:12:07.682Z,29.14
2022-10-21T11:13:07.696Z,29.18
2022-10-21T11:14:07.823Z,29.23
2022-10-21T11:15:07.706Z,29.26
2022-10-21T11:16:07.717Z,29.16
2022-10-21T11:17:07.729Z,28.80
2022-10-21T11:18:24.173Z,28.30
2022-10-21T11:19:07.743Z,27.85
2022-10-21T11:20:07.761Z,27.57
2022-10-21T11:21:07.764Z,27.00
2022-10-21T11:22:07.772Z,26.58
2022-10-21T11:24:07.797Z,25.73
2022-10-21T11:25:07.795Z,25.14
2022-10-21T11:26:07.809Z,24.58
2022-10-21T11:27:07.818Z,24.47
2022-10-21T11:28:07.825Z,24.35
2022-10-21T11:29:07.847Z,23.88
2022-10-21T11:30:07.960Z,23.70
2022-10-21T11:31:07.861Z,23.66
2022-10-21T11:32:11.442Z,23.48
2022-10-21T11:33:07.869Z,23.46
2022-10-21T11:34:12.703Z,23.61
2022-10-21T11:35:07.884Z,23.98
2022-10-21T11:36:07.896Z,24.00
2022-10-21T11:37:07.907Z,24.40
2022-10-21T11:38:07.908Z,24.47
2022-10-21T11:39:07.917Z,24.81
2022-10-21T11:40:07.926Z,25.17
2022-10-21T11:41:08.035Z,25.43
2022-10-21T11:42:07.942Z,25.69
2022-10-21T11:43:07.954Z,25.69
2022-10-21T11:44:07.957Z,25.98
2022-10-21T11:45:07.966Z,25.98
2022-10-21T11:46:08.143Z,26.40
2022-10-21T11:47:07.977Z,26.29
2022-10-21T11:48:07.995Z,26.58
2022-10-21T11:49:07.989Z,26.67
2022-10-21T11:50:08.161Z,27.02
2022-10-21T11:51:10.420Z,26.89
2022-10-21T11:52:08.019Z,27.02
2022-10-21T11:53:08.024Z,27.10
2022-10-21T11:54:08.031Z,27.06
2022-10-21T11:55:10.339Z,27.24
2022-10-21T11:56:08.047Z,27.06
2022-10-21T11:57:08.051Z,27.12
2022-10-21T11:58:08.059Z,27.27
2022-10-21T11:59:08.063Z,27.49
2022-10-21T12:00:08.157Z,27.94
2022-10-21T12:01:08.079Z,28.67
2022-10-21T12:02:08.249Z,28.68
2022-10-21T12:03:08.091Z,27.94
2022-10-21T12:04:08.099Z,27.55
2022-10-21T12:05:08.109Z,26.63
2022-10-21T12:06:08.114Z,26.25
2022-10-21T12:07:11.183Z,26.01
2022-10-21T12:08:08.128Z,25.87
2022-10-21T12:09:08.129Z,25.70
2022-10-21T12:10:08.273Z,25.36
2022-10-21T12:11:08.145Z,25.05
2022-10-21T12:12:08.152Z,24.83
2022-10-21T12:13:08.159Z,24.60
2022-10-21T12:14:08.159Z,24.39
2022-10-21T12:15:08.172Z,24.27
2022-10-21T12:16:08.177Z,24.10
2022-10-21T12:17:08.184Z,23.97
2022-10-21T12:18:08.303Z,23.85
2022-10-21T12:19:08.193Z,23.76
2022-10-21T12:20:08.207Z,23.42
2022-10-21T12:21:08.206Z,23.35
2022-10-21T12:22:08.209Z,23.23
2022-10-21T12:23:08.216Z,23.16
2022-10-21T12:24:08.217Z,23.10
2022-10-21T12:25:08.225Z,23.15
2022-10-21T12:26:08.228Z,22.95
2022-10-21T12:27:08.236Z,22.90
2022-10-21T12:28:08.239Z,22.76
2022-10-21T12:29:08.249Z,22.70
2022-10-21T12:30:08.247Z,22.62
2022-10-21T12:31:08.254Z,22.39
2022-10-21T12:32:08.257Z,22.21
2022-10-21T12:33:08.260Z,21.96
2022-10-21T12:34:08.377Z,21.75
2022-10-21T12:35:08.270Z,21.58
2022-10-21T12:36:08.271Z,21.58
2022-10-21T12:37:08.277Z,21.38
2022-10-21T12:38:08.278Z,21.19
2022-10-21T12:39:08.282Z,21.07
2022-10-21T12:40:08.286Z,21.29
2022-10-21T12:41:08.287Z,21.42
2022-10-21T12:42:08.294Z,21.27
2022-10-21T12:43:08.303Z,21.14
2022-10-21T12:44:08.300Z,21.12
2022-10-21T12:45:08.302Z,21.21
2022-10-21T12:46:08.310Z,21.21
2022-10-21T12:47:08.307Z,21.16
2022-10-21T12:48:08.310Z,21.10
2022-10-21T12:49:08.319Z,21.21
2022-10-21T12:50:08.347Z,21.22
2022-10-21T12:51:08.322Z,21.24
2022-10-21T12:52:08.324Z,21.17
2022-10-21T12:53:08.330Z,20.97
2022-10-21T12:54:08.325Z,20.97
2022-10-21T12:55:08.330Z,20.87